sensor_id;sensor_type;location;lat;lon;timestamp;pressure;altitude;pressure_sealevel;temperature;humidity
38612;BME280;24368;52.156;20.788;2022-12-07T00:01:27;99756.23;;;0.54;100.00
38612;BME280;24368;52.156;20.788;2022-12-07T00:06:28;99753.52;;;0.59;100.00
38612;BME280;24368;52.156;20.788;2022-12-07T00:11:29;99747.50;;;0.66;100.00
38612;BME280;24368;52.156;20.788;2022-12-07T00:16:32;99745.16;;;0.82;100.00
38612;BME280;24368;52.156;20.788;2022-12-07T00:21:35;99736.65;;;0.94;100.00
38612;BME280;24368;52.156;20.788;2022-12-07T00:26:39;99738.33;;;0.98;100.00
38612;BME280;24368;52.156;20.788;2022-12-07T00:31:40;99736.22;;;1.01;100.00
38612;BME280;24368;52.156;20.788;2022-12-07T00:36:41;99738.11;;;1.08;100.00
38612;BME280;24368;52.156;20.788;2022-12-07T00:41:42;99736.35;;;1.13;100.00
38612;BME280;24368;52.156;20.788;2022-12-07T00:46:43;99736.33;;;1.18;100.00
38612;BME280;24368;52.156;20.788;2022-12-07T00:51:48;99729.95;;;1.20;100.00
38612;BME280;24368;52.156;20.788;2022-12-07T00:56:49;99729.98;;;1.22;100.00
38612;BME280;24368;52.156;20.788;2022-12-07T01:01:50;99726.14;;;1.25;100.00
38612;BME280;24368;52.156;20.788;2022-12-07T01:06:51;99724.86;;;1.29;100.00
38612;BME280;24368;52.156;20.788;2022-12-07T01:11:52;99724.17;;;1.33;100.00
38612;BME280;24368;52.156;20.788;2022-12-07T01:16:53;99717.11;;;1.30;100.00
38612;BME280;24368;52.156;20.788;2022-12-07T01:21:54;99709.63;;;1.26;100.00
38612;BME280;24368;52.156;20.788;2022-12-07T01:26:55;99712.27;;;1.25;100.00
38612;BME280;24368;52.156;20.788;2022-12-07T01:31:56;99704.50;;;1.27;100.00
38612;BME280;24368;52.156;20.788;2022-12-07T01:36:57;99709.74;;;1.34;100.00
38612;BME280;24368;52.156;20.788;2022-12-07T01:42:00;99710.02;;;1.39;100.00
38612;BME280;24368;52.156;20.788;2022-12-07T01:47:03;99706.92;;;1.44;100.00
38612;BME280;24368;52.156;20.788;2022-12-07T01:52:10;99708.96;;;1.40;100.00
38612;BME280;24368;52.156;20.788;2022-12-07T01:57:17;99710.58;;;1.34;100.00
38612;BME280;24368;52.156;20.788;2022-12-07T02:02:25;99710.60;;;1.27;100.00
38612;BME280;24368;52.156;20.788;2022-12-07T02:07:28;99699.02;;;1.28;100.00
38612;BME280;24368;52.156;20.788;2022-12-07T02:12:30;99700.25;;;1.28;100.00
38612;BME280;24368;52.156;20.788;2022-12-07T02:17:49;99698.58;;;1.28;100.00
38612;BME280;24368;52.156;20.788;2022-12-07T02:29:04;99698.24;;;1.25;100.00
38612;BME280;24368;52.156;20.788;2022-12-07T02:34:26;99695.80;;;1.27;100.00
38612;BME280;24368;52.156;20.788;2022-12-07T02:39:46;99692.13;;;1.23;100.00
38612;BME280;24368;52.156;20.788;2022-12-07T02:44:52;99690.79;;;1.19;100.00
38612;BME280;24368;52.156;20.788;2022-12-07T02:49:55;99692.70;;;1.10;100.00
38612;BME280;24368;52.156;20.788;2022-12-07T02:54:56;99688.51;;;1.08;100.00
38612;BME280;24368;52.156;20.788;2022-12-07T03:00:10;99690.52;;;1.06;100.00
38612;BME280;24368;52.156;20.788;2022-12-07T03:11:14;99689.55;;;0.93;100.00
38612;BME280;24368;52.156;20.788;2022-12-07T03:16:21;99688.77;;;0.92;100.00
38612;BME280;24368;52.156;20.788;2022-12-07T03:21:35;99688.08;;;0.92;100.00
38612;BME280;24368;52.156;20.788;2022-12-07T03:26:41;99679.63;;;0.89;100.00
38612;BME280;24368;52.156;20.788;2022-12-07T03:31:45;99674.45;;;0.89;100.00
38612;BME280;24368;52.156;20.788;2022-12-07T03:36:52;99675.23;;;0.88;100.00
38612;BME280;24368;52.156;20.788;2022-12-07T03:41:56;99669.60;;;0.84;100.00
38612;BME280;24368;52.156;20.788;2022-12-07T03:47:04;99668.20;;;0.77;100.00
38612;BME280;24368;52.156;20.788;2022-12-07T03:52:36;99660.61;;;0.71;100.00
38612;BME280;24368;52.156;20.788;2022-12-07T03:57:41;99659.10;;;0.80;100.00
38612;BME280;24368;52.156;20.788;2022-12-07T04:02:44;99653.78;;;0.80;100.00
38612;BME280;24368;52.156;20.788;2022-12-07T04:07:45;99653.09;;;0.82;100.00
38612;BME280;24368;52.156;20.788;2022-12-07T04:12:46;99654.56;;;0.71;100.00
38612;BME280;24368;52.156;20.788;2022-12-07T04:17:47;99646.96;;;0.70;100.00
38612;BME280;24368;52.156;20.788;2022-12-07T04:22:48;99649.16;;;0.71;100.00
38612;BME280;24368;52.156;20.788;2022-12-07T04:27:49;99647.69;;;0.70;100.00
38612;BME280;24368;52.156;20.788;2022-12-07T04:32:50;99646.96;;;0.70;100.00
38612;BME280;24368;52.156;20.788;2022-12-07T04:37:51;99638.65;;;0.68;100.00
38612;BME280;24368;52.156;20.788;2022-12-07T04:42:52;99641.06;;;0.61;100.00
38612;BME280;24368;52.156;20.788;2022-12-07T04:47:53;99644.66;;;0.57;100.00
38612;BME280;24368;52.156;20.788;2022-12-07T04:52:54;99641.33;;;0.54;100.00
38612;BME280;24368;52.156;20.788;2022-12-07T04:57:55;99636.80;;;0.52;100.00
38612;BME280;24368;52.156;20.788;2022-12-07T05:02:56;99629.85;;;0.50;100.00
38612;BME280;24368;52.156;20.788;2022-12-07T05:07:57;99634.15;;;0.48;100.00
38612;BME280;24368;52.156;20.788;2022-12-07T05:12:58;99627.36;;;0.46;100.00
38612;BME280;24368;52.156;20.788;2022-12-07T05:17:59;99621.36;;;0.43;100.00
38612;BME280;24368;52.156;20.788;2022-12-07T05:23:00;99621.02;;;0.38;100.00
38612;BME280;24368;52.156;20.788;2022-12-07T05:28:02;99614.91;;;0.36;100.00
38612;BME280;24368;52.156;20.788;2022-12-07T05:33:03;99618.58;;;0.36;100.00
38612;BME280;24368;52.156;20.788;2022-12-07T05:38:04;99618.87;;;0.34;100.00
38612;BME280;24368;52.156;20.788;2022-12-07T05:43:05;99618.74;;;0.29;100.00
38612;BME280;24368;52.156;20.788;2022-12-07T05:48:06;99620.43;;;0.26;100.00
38612;BME280;24368;52.156;20.788;2022-12-07T05:53:07;99627.48;;;0.24;100.00
38612;BME280;24368;52.156;20.788;2022-12-07T05:58:08;99628.21;;;0.27;100.00
38612;BME280;24368;52.156;20.788;2022-12-07T06:03:28;99624.09;;;0.21;100.00
38612;BME280;24368;52.156;20.788;2022-12-07T06:08:29;99627.75;;;0.20;100.00
38612;BME280;24368;52.156;20.788;2022-12-07T06:13:30;99625.32;;;0.15;100.00
38612;BME280;24368;52.156;20.788;2022-12-07T06:18:31;99619.39;;;0.13;100.00
38612;BME280;24368;52.156;20.788;2022-12-07T06:23:32;99618.85;;;0.19;100.00
38612;BME280;24368;52.156;20.788;2022-12-07T06:28:33;99617.44;;;0.19;100.00
38612;BME280;24368;52.156;20.788;2022-12-07T06:33:34;99614.05;;;0.23;100.00
38612;BME280;24368;52.156;20.788;2022-12-07T06:38:35;99618.23;;;0.06;100.00
38612;BME280;24368;52.156;20.788;2022-12-07T06:43:36;99615.10;;;0.08;100.00
38612;BME280;24368;52.156;20.788;2022-12-07T06:48:37;99620.67;;;0.10;100.00
38612;BME280;24368;52.156;20.788;2022-12-07T06:53:38;99617.32;;;0.16;100.00
38612;BME280;24368;52.156;20.788;2022-12-07T06:58:40;99620.05;;;0.19;100.00
38612;BME280;24368;52.156;20.788;2022-12-07T07:03:41;99618.15;;;0.11;100.00
38612;BME280;24368;52.156;20.788;2022-12-07T07:08:42;99620.82;;;0.08;100.00
38612;BME280;24368;52.156;20.788;2022-12-07T07:13:44;99619.92;;;0.13;100.00
38612;BME280;24368;52.156;20.788;2022-12-07T07:18:45;99621.20;;;0.13;100.00
38612;BME280;24368;52.156;20.788;2022-12-07T07:23:46;99617.98;;;0.19;100.00
38612;BME280;24368;52.156;20.788;2022-12-07T07:28:47;99613.30;;;0.24;100.00
38612;BME280;24368;52.156;20.788;2022-12-07T07:33:48;99620.21;;;0.27;100.00
38612;BME280;24368;52.156;20.788;2022-12-07T07:38:49;99628.79;;;0.23;100.00
38612;BME280;24368;52.156;20.788;2022-12-07T07:43:50;99628.46;;;0.20;100.00
38612;BME280;24368;52.156;20.788;2022-12-07T07:48:52;99625.70;;;0.20;100.00
38612;BME280;24368;52.156;20.788;2022-12-07T07:53:53;99621.60;;;0.27;100.00
38612;BME280;24368;52.156;20.788;2022-12-07T07:58:54;99624.80;;;0.33;100.00
38612;BME280;24368;52.156;20.788;2022-12-07T08:03:56;99624.97;;;0.34;100.00
38612;BME280;24368;52.156;20.788;2022-12-07T08:08:57;99627.97;;;0.37;100.00
38612;BME280;24368;52.156;20.788;2022-12-07T08:13:59;99634.21;;;0.45;100.00
38612;BME280;24368;52.156;20.788;2022-12-07T08:19:00;99633.12;;;0.51;100.00
38612;BME280;24368;52.156;20.788;2022-12-07T08:24:01;99635.21;;;0.53;100.00
38612;BME280;24368;52.156;20.788;2022-12-07T08:29:02;99637.53;;;0.59;100.00
38612;BME280;24368;52.156;20.788;2022-12-07T08:34:03;99639.48;;;0.68;100.00
38612;BME280;24368;52.156;20.788;2022-12-07T08:39:04;99646.08;;;0.81;100.00
38612;BME280;24368;52.156;20.788;2022-12-07T08:44:06;99641.36;;;0.91;100.00
38612;BME280;24368;52.156;20.788;2022-12-07T08:49:13;99641.08;;;1.02;100.00
38612;BME280;24368;52.156;20.788;2022-12-07T08:54:17;99636.16;;;1.12;100.00
38612;BME280;24368;52.156;20.788;2022-12-07T08:59:20;99638.56;;;1.19;100.00
38612;BME280;24368;52.156;20.788;2022-12-07T09:04:21;99632.66;;;1.22;100.00
38612;BME280;24368;52.156;20.788;2022-12-07T09:09:22;99628.00;;;1.29;100.00
38612;BME280;24368;52.156;20.788;2022-12-07T09:14:24;99629.23;;;1.38;100.00
38612;BME280;24368;52.156;20.788;2022-12-07T09:19:25;99625.15;;;1.46;100.00
38612;BME280;24368;52.156;20.788;2022-12-07T09:24:25;99620.95;;;1.51;100.00
38612;BME280;24368;52.156;20.788;2022-12-07T09:29:27;99615.36;;;1.57;100.00
38612;BME280;24368;52.156;20.788;2022-12-07T09:34:31;99616.11;;;1.60;100.00
38612;BME280;24368;52.156;20.788;2022-12-07T09:39:32;99612.64;;;1.62;100.00
38612;BME280;24368;52.156;20.788;2022-12-07T09:44:34;99612.79;;;1.65;100.00
38612;BME280;24368;52.156;20.788;2022-12-07T09:49:36;99616.70;;;1.59;100.00
38612;BME280;24368;52.156;20.788;2022-12-07T09:54:41;99607.93;;;1.63;100.00
38612;BME280;24368;52.156;20.788;2022-12-07T09:59:44;99608.17;;;1.66;100.00
38612;BME280;24368;52.156;20.788;2022-12-07T10:04:46;99605.59;;;1.71;100.00
38612;BME280;24368;52.156;20.788;2022-12-07T10:09:47;99605.77;;;1.73;100.00
38612;BME280;24368;52.156;20.788;2022-12-07T10:14:59;99604.91;;;1.68;100.00
38612;BME280;24368;52.156;20.788;2022-12-07T10:20:23;99606.42;;;1.67;100.00
38612;BME280;24368;52.156;20.788;2022-12-07T10:25:28;99599.65;;;1.69;100.00
38612;BME280;24368;52.156;20.788;2022-12-07T10:30:30;99595.03;;;1.73;100.00
38612;BME280;24368;52.156;20.788;2022-12-07T10:35:32;99599.27;;;1.72;100.00
38612;BME280;24368;52.156;20.788;2022-12-07T10:40:36;99600.49;;;1.74;100.00
38612;BME280;24368;52.156;20.788;2022-12-07T10:56:32;99592.45;;;1.82;100.00
38612;BME280;24368;52.156;20.788;2022-12-07T11:01:54;99593.21;;;1.74;100.00
38612;BME280;24368;52.156;20.788;2022-12-07T11:24:11;99595.69;;;1.74;100.00
38612;BME280;24368;52.156;20.788;2022-12-07T11:29:34;99587.89;;;1.78;100.00
38612;BME280;24368;52.156;20.788;2022-12-07T11:45:17;99572.27;;;1.87;100.00
38612;BME280;24368;52.156;20.788;2022-12-07T11:55:54;99568.18;;;1.77;100.00
38612;BME280;24368;52.156;20.788;2022-12-07T12:06:21;99563.62;;;1.66;100.00
38612;BME280;24368;52.156;20.788;2022-12-07T12:22:18;99549.33;;;1.64;100.00
38612;BME280;24368;52.156;20.788;2022-12-07T12:27:27;99544.87;;;1.65;100.00
38612;BME280;24368;52.156;20.788;2022-12-07T12:32:40;99536.11;;;1.69;100.00
38612;BME280;24368;52.156;20.788;2022-12-07T12:37:44;99539.27;;;1.69;100.00
38612;BME280;24368;52.156;20.788;2022-12-07T12:42:51;99538.52;;;1.67;100.00
38612;BME280;24368;52.156;20.788;2022-12-07T12:47:58;99533.36;;;1.62;100.00
38612;BME280;24368;52.156;20.788;2022-12-07T12:53:22;99534.27;;;1.61;100.00
38612;BME280;24368;52.156;20.788;2022-12-07T12:59:17;99527.89;;;1.65;100.00
38612;BME280;24368;52.156;20.788;2022-12-07T13:04:24;99525.50;;;1.64;100.00
38612;BME280;24368;52.156;20.788;2022-12-07T13:09:29;99525.75;;;1.63;100.00
38612;BME280;24368;52.156;20.788;2022-12-07T13:14:53;99523.23;;;1.67;100.00
38612;BME280;24368;52.156;20.788;2022-12-07T13:19:55;99521.64;;;1.61;100.00
38612;BME280;24368;52.156;20.788;2022-12-07T13:29:58;99516.39;;;1.54;100.00
38612;BME280;24368;52.156;20.788;2022-12-07T13:34:59;99519.25;;;1.51;100.00
38612;BME280;24368;52.156;20.788;2022-12-07T13:40:12;99525.50;;;1.44;100.00
38612;BME280;24368;52.156;20.788;2022-12-07T13:45:23;99527.76;;;1.37;100.00
38612;BME280;24368;52.156;20.788;2022-12-07T13:50:55;99531.12;;;1.37;100.00
38612;BME280;24368;52.156;20.788;2022-12-07T13:56:00;99531.46;;;1.30;100.00
38612;BME280;24368;52.156;20.788;2022-12-07T14:01:02;99533.04;;;1.25;100.00
38612;BME280;24368;52.156;20.788;2022-12-07T14:06:16;99538.30;;;1.21;100.00
38612;BME280;24368;52.156;20.788;2022-12-07T14:11:19;99533.41;;;1.20;100.00
38612;BME280;24368;52.156;20.788;2022-12-07T14:16:35;99537.59;;;1.12;100.00
38612;BME280;24368;52.156;20.788;2022-12-07T14:21:36;99533.66;;;1.09;100.00
38612;BME280;24368;52.156;20.788;2022-12-07T14:26:38;99536.40;;;1.03;100.00
38612;BME280;24368;52.156;20.788;2022-12-07T14:31:41;99534.05;;;0.92;100.00
38612;BME280;24368;52.156;20.788;2022-12-07T14:36:42;99527.86;;;0.77;100.00
38612;BME280;24368;52.156;20.788;2022-12-07T14:41:43;99527.66;;;0.73;100.00
38612;BME280;24368;52.156;20.788;2022-12-07T14:46:54;99525.85;;;0.71;100.00
38612;BME280;24368;52.156;20.788;2022-12-07T14:51:55;99524.63;;;0.69;100.00
38612;BME280;24368;52.156;20.788;2022-12-07T14:56:56;99521.60;;;0.73;100.00
38612;BME280;24368;52.156;20.788;2022-12-07T15:01:57;99518.42;;;0.74;100.00
38612;BME280;24368;52.156;20.788;2022-12-07T15:07:00;99512.17;;;0.71;100.00
38612;BME280;24368;52.156;20.788;2022-12-07T15:12:05;99511.10;;;0.69;100.00
38612;BME280;24368;52.156;20.788;2022-12-07T15:17:06;99510.23;;;0.67;100.00
38612;BME280;24368;52.156;20.788;2022-12-07T15:22:08;99506.56;;;0.72;100.00
38612;BME280;24368;52.156;20.788;2022-12-07T15:27:14;99515.25;;;0.75;100.00
38612;BME280;24368;52.156;20.788;2022-12-07T15:32:15;99508.91;;;0.79;100.00
38612;BME280;24368;52.156;20.788;2022-12-07T15:37:16;99503.44;;;0.82;100.00
38612;BME280;24368;52.156;20.788;2022-12-07T15:42:17;99503.33;;;0.86;100.00
38612;BME280;24368;52.156;20.788;2022-12-07T15:47:18;99501.46;;;0.88;100.00
38612;BME280;24368;52.156;20.788;2022-12-07T15:52:19;99500.82;;;0.89;100.00
38612;BME280;24368;52.156;20.788;2022-12-07T15:57:20;99498.75;;;0.89;100.00
38612;BME280;24368;52.156;20.788;2022-12-07T16:02:22;99501.96;;;0.92;100.00
38612;BME280;24368;52.156;20.788;2022-12-07T16:07:24;99497.88;;;1.03;100.00
38612;BME280;24368;52.156;20.788;2022-12-07T16:12:25;99493.70;;;1.08;100.00
38612;BME280;24368;52.156;20.788;2022-12-07T16:17:26;99488.32;;;1.03;100.00
38612;BME280;24368;52.156;20.788;2022-12-07T16:22:27;99489.04;;;1.05;100.00
38612;BME280;24368;52.156;20.788;2022-12-07T16:27:28;99492.11;;;1.01;100.00
38612;BME280;24368;52.156;20.788;2022-12-07T16:32:29;99491.05;;;0.95;100.00
38612;BME280;24368;52.156;20.788;2022-12-07T16:37:30;99498.97;;;1.03;100.00
38612;BME280;24368;52.156;20.788;2022-12-07T16:42:32;99491.13;;;1.05;100.00
38612;BME280;24368;52.156;20.788;2022-12-07T16:47:37;99489.03;;;1.05;100.00
38612;BME280;24368;52.156;20.788;2022-12-07T16:52:38;99481.60;;;1.05;100.00
38612;BME280;24368;52.156;20.788;2022-12-07T16:57:39;99484.36;;;1.01;100.00
38612;BME280;24368;52.156;20.788;2022-12-07T17:02:40;99483.88;;;1.09;100.00
38612;BME280;24368;52.156;20.788;2022-12-07T17:07:41;99483.37;;;1.11;100.00
38612;BME280;24368;52.156;20.788;2022-12-07T17:12:42;99482.22;;;1.17;100.00
38612;BME280;24368;52.156;20.788;2022-12-07T17:17:51;99480.73;;;1.21;100.00
38612;BME280;24368;52.156;20.788;2022-12-07T17:22:53;99485.27;;;1.23;100.00
38612;BME280;24368;52.156;20.788;2022-12-07T17:27:54;99488.31;;;1.24;100.00
38612;BME280;24368;52.156;20.788;2022-12-07T17:32:55;99484.27;;;1.25;100.00
38612;BME280;24368;52.156;20.788;2022-12-07T17:37:56;99496.51;;;1.31;100.00
38612;BME280;24368;52.156;20.788;2022-12-07T17:42:57;99493.27;;;1.25;100.00
38612;BME280;24368;52.156;20.788;2022-12-07T17:47:58;99487.38;;;1.13;100.00
38612;BME280;24368;52.156;20.788;2022-12-07T17:52:59;99488.38;;;1.19;100.00
38612;BME280;24368;52.156;20.788;2022-12-07T17:58:12;99497.52;;;1.21;100.00
38612;BME280;24368;52.156;20.788;2022-12-07T18:03:13;99489.58;;;1.28;100.00
38612;BME280;24368;52.156;20.788;2022-12-07T18:08:15;99490.51;;;1.39;100.00
38612;BME280;24368;52.156;20.788;2022-12-07T18:13:16;99491.98;;;1.44;100.00
38612;BME280;24368;52.156;20.788;2022-12-07T18:18:36;99496.91;;;1.41;100.00
38612;BME280;24368;52.156;20.788;2022-12-07T18:23:37;99497.30;;;1.43;100.00
38612;BME280;24368;52.156;20.788;2022-12-07T18:28:39;99501.19;;;1.49;100.00
38612;BME280;24368;52.156;20.788;2022-12-07T18:33:41;99504.81;;;1.51;100.00
38612;BME280;24368;52.156;20.788;2022-12-07T18:38:42;99511.63;;;1.51;100.00
38612;BME280;24368;52.156;20.788;2022-12-07T18:43:43;99521.83;;;1.49;100.00
38612;BME280;24368;52.156;20.788;2022-12-07T18:48:45;99521.57;;;1.41;100.00
38612;BME280;24368;52.156;20.788;2022-12-07T18:53:47;99523.13;;;1.37;100.00
38612;BME280;24368;52.156;20.788;2022-12-07T18:58:51;99530.55;;;1.35;100.00
38612;BME280;24368;52.156;20.788;2022-12-07T19:04:11;99529.02;;;1.35;100.00
38612;BME280;24368;52.156;20.788;2022-12-07T19:09:12;99528.04;;;1.32;100.00
38612;BME280;24368;52.156;20.788;2022-12-07T19:19:19;99544.73;;;1.24;100.00
38612;BME280;24368;52.156;20.788;2022-12-07T19:24:20;99555.53;;;1.28;100.00
38612;BME280;24368;52.156;20.788;2022-12-07T19:29:21;99566.82;;;1.21;100.00
38612;BME280;24368;52.156;20.788;2022-12-07T19:34:22;99565.12;;;1.18;100.00
38612;BME280;24368;52.156;20.788;2022-12-07T19:39:23;99565.52;;;1.15;100.00
38612;BME280;24368;52.156;20.788;2022-12-07T19:44:26;99567.64;;;1.07;100.00
38612;BME280;24368;52.156;20.788;2022-12-07T19:49:30;99569.03;;;1.03;100.00
38612;BME280;24368;52.156;20.788;2022-12-07T19:54:33;99574.05;;;0.91;100.00
38612;BME280;24368;52.156;20.788;2022-12-07T19:59:35;99583.33;;;0.80;100.00
38612;BME280;24368;52.156;20.788;2022-12-07T20:04:36;99598.54;;;0.69;100.00
38612;BME280;24368;52.156;20.788;2022-12-07T20:09:37;99600.77;;;0.62;100.00
38612;BME280;24368;52.156;20.788;2022-12-07T20:14:38;99610.00;;;0.56;100.00
38612;BME280;24368;52.156;20.788;2022-12-07T20:19:40;99611.27;;;0.48;100.00
38612;BME280;24368;52.156;20.788;2022-12-07T20:24:41;99615.27;;;0.36;100.00
38612;BME280;24368;52.156;20.788;2022-12-07T20:29:42;99615.19;;;0.37;100.00
38612;BME280;24368;52.156;20.788;2022-12-07T20:34:43;99617.00;;;0.38;100.00
38612;BME280;24368;52.156;20.788;2022-12-07T20:39:46;99622.60;;;0.37;100.00
38612;BME280;24368;52.156;20.788;2022-12-07T20:44:50;99632.39;;;0.26;100.00
38612;BME280;24368;52.156;20.788;2022-12-07T20:49:55;99629.64;;;0.21;100.00
38612;BME280;24368;52.156;20.788;2022-12-07T20:54:56;99631.73;;;0.23;100.00
38612;BME280;24368;52.156;20.788;2022-12-07T20:59:57;99634.95;;;0.19;100.00
38612;BME280;24368;52.156;20.788;2022-12-07T21:04:58;99633.97;;;0.13;100.00
38612;BME280;24368;52.156;20.788;2022-12-07T21:09:59;99632.05;;;0.09;100.00
38612;BME280;24368;52.156;20.788;2022-12-07T21:15:00;99640.30;;;0.09;100.00
38612;BME280;24368;52.156;20.788;2022-12-07T21:20:01;99651.49;;;0.10;100.00
38612;BME280;24368;52.156;20.788;2022-12-07T21:25:02;99658.13;;;0.05;100.00
38612;BME280;24368;52.156;20.788;2022-12-07T21:30:04;99658.64;;;0.05;100.00
38612;BME280;24368;52.156;20.788;2022-12-07T21:35:06;99663.80;;;0.05;100.00
38612;BME280;24368;52.156;20.788;2022-12-07T21:40:08;99659.10;;;0.03;100.00
38612;BME280;24368;52.156;20.788;2022-12-07T21:45:09;99662.98;;;0.02;100.00
38612;BME280;24368;52.156;20.788;2022-12-07T21:50:10;99671.12;;;0.02;100.00
38612;BME280;24368;52.156;20.788;2022-12-07T21:55:11;99659.77;;;0.08;100.00
38612;BME280;24368;52.156;20.788;2022-12-07T22:05:14;99654.30;;;0.12;100.00
38612;BME280;24368;52.156;20.788;2022-12-07T22:10:15;99655.30;;;0.18;100.00
38612;BME280;24368;52.156;20.788;2022-12-07T22:15:28;99660.79;;;0.16;100.00
38612;BME280;24368;52.156;20.788;2022-12-07T22:20:29;99656.91;;;0.12;100.00
38612;BME280;24368;52.156;20.788;2022-12-07T22:25:29;99657.86;;;0.16;100.00
38612;BME280;24368;52.156;20.788;2022-12-07T22:30:30;99663.38;;;0.16;100.00
38612;BME280;24368;52.156;20.788;2022-12-07T22:35:32;99661.52;;;0.18;100.00
38612;BME280;24368;52.156;20.788;2022-12-07T22:40:33;99656.73;;;0.20;100.00
38612;BME280;24368;52.156;20.788;2022-12-07T22:45:34;99651.60;;;0.24;100.00
38612;BME280;24368;52.156;20.788;2022-12-07T22:50:35;99653.02;;;0.26;100.00
38612;BME280;24368;52.156;20.788;2022-12-07T22:55:40;99651.05;;;0.24;100.00
38612;BME280;24368;52.156;20.788;2022-12-07T23:00:41;99657.99;;;0.19;100.00
38612;BME280;24368;52.156;20.788;2022-12-07T23:05:46;99654.51;;;0.24;100.00
38612;BME280;24368;52.156;20.788;2022-12-07T23:10:48;99657.23;;;0.25;100.00
38612;BME280;24368;52.156;20.788;2022-12-07T23:15:49;99657.14;;;0.21;100.00
38612;BME280;24368;52.156;20.788;2022-12-07T23:20:50;99656.04;;;0.25;100.00
38612;BME280;24368;52.156;20.788;2022-12-07T23:25:52;99669.53;;;0.25;100.00
38612;BME280;24368;52.156;20.788;2022-12-07T23:30:53;99676.40;;;0.23;100.00
38612;BME280;24368;52.156;20.788;2022-12-07T23:35:54;99668.14;;;0.25;100.00
38612;BME280;24368;52.156;20.788;2022-12-07T23:40:55;99666.83;;;0.32;100.00
38612;BME280;24368;52.156;20.788;2022-12-07T23:45:56;99665.92;;;0.27;100.00
38612;BME280;24368;52.156;20.788;2022-12-07T23:50:57;99661.05;;;0.22;100.00
38612;BME280;24368;52.156;20.788;2022-12-07T23:55:59;99664.73;;;0.24;100.00
